x

Shumagin Islands - 85nm South Of Sand Point, Ak (46075) Wave Buoy

3:50 - Wed 23rd Jul 2014 All times are UTC.

  • Sig Wave height 6.2ft
  • Peak Period 6s
  • Average Period 5s
  • Wind
    22mph, 27mph gusts
  • Sea Temp 53°f
  • Air Temp 53°f
  • Sea Pressure 1019.2mb

More Historic Weather Station data

Upgrade to MSW Pro to gain access to the past 30 days of data for over 8000 Wavebouys and Weather Stations around the globe.

Join Pro

Comparision Forecast

View Surf forecast
   
mer. 07/23 3:50 6ft 6s 5s 22 27 mph 1019.2mb 53f 53f
2:50 5.5ft 6s 5s 22 27 mph 1019mb 53f 54f
1:50 5.5ft 6s 5s 22 29 mph 1018.9mb 53f 54f
12:50 5ft 7s 5s 18 22 mph 1019mb 53f 54f
11:50 5.5ft 7s 5s 16 18 mph 1019.3mb 54f 54f
10:50 5ft 6s 5s 18 20 mph 1019.3mb 54f 54f
9:50 5.5ft 7s 5s 20 22 mph 1019.3mb 54f 54f
8:50 5.5ft 7s 5s 18 22 mph 1019.2mb 55f 54f
7:50 5ft 7s 5s 16 18 mph 1019.1mb 55f 54f
6:50 5ft 7s 5s 16 18 mph 1019mb 55f 55f
5:50 5ft 6s 5s 16 20 mph 1018.8mb 55f 55f
4:50 5ft 7s 5s 13 18 mph 1018.7mb 55f 55f
3:50 5ft 7s 5s 16 20 mph 1018.9mb 55f 54f
2:50 5ft 7s 5s 18 22 mph 1019mb 55f 55f
1:50 6ft 6s 5s 18 22 mph 1018.9mb 55f 55f
12:50 6.5ft 6s 5s 18 22 mph 1019.1mb 55f 54f
mar. 07/22 11:50 5.5ft 7s 5s 20 25 mph 1019.1mb 55f 54f
10:50 6ft 7s 5s 20 25 mph 1019.2mb 55f 52f
9:50 6ft 6s 5s 20 25 mph 1019.3mb 55f 53f
8:50 6ft 6s 5s 20 25 mph 1019.3mb 55f 54f
7:50 6ft 6s 5s 20 22 mph 1019mb 55f 54f
6:50 6.5ft 7s 5s 20 25 mph 1019.1mb 55f 54f
5:50 6ft 7s 5s 22 27 mph 1019.2mb 55f 54f
4:50 6ft 7s 5s 16 20 mph 1019mb 55f 53f
3:50 6ft 6s 5s 18 25 mph 1019mb 55f 54f
2:50 6.5ft 6s 5s 22 27 mph 1019.3mb 55f 54f
1:50 6ft 6s 5s 25 27 mph 1019.5mb 55f 53f
12:50 5.5ft 6s 5s 20 27 mph 1019.7mb 55f 54f
11:50 5ft 7s 5s 20 27 mph 1019.8mb 55f 54f
10:50 5ft 6s 5s 18 22 mph 1020.1mb 55f 54f
9:50 5ft 6s 5s 20 22 mph 1020.2mb 55f 54f
8:50 5ft 6s 5s 16 20 mph 1020.2mb 55f 54f
7:50 5ft 6s 5s 16 20 mph 1020.2mb 55f 54f
6:50 5ft 6s 5s 18 20 mph 1020.2mb 55f 54f
5:50 4.5ft 5s 5s 18 22 mph 1020.3mb 55f 53f
4:50 4.5ft 5s 5s 18 20 mph 1019.9mb 55f 53f
3:50 4.5ft 5s 5s 18 20 mph 1019.6mb 55f 53f
2:50 4.5ft 5s 5s 18 20 mph 1019.8mb 55f 54f
1:50 3.5ft 4s 4s 18 22 mph 1019.7mb 55f 53f
12:50 2.5ft 8s 4s 18 22 mph 1019.7mb 55f 54f
lun. 07/21 11:50 3ft 12s 5s 16 20 mph 1019.4mb 55f 55f
10:50 3ft 8s 6s 13 16 mph 1019.6mb 55f 55f
9:50 3ft 8s 6s 9
mph
1019.4mb 55f 55f
8:50 3.5ft 8s 6s 11 13 mph 1019.4mb 55f 55f
7:50 3.5ft 8s 7s 9 11 mph 1019.6mb 55f 54f
3:50 4.5ft 10s 6s 13 16 mph 1020.3mb 55f 53f
2:50 4.5ft 9s 6s 13 18 mph 1020.5mb 55f 53f
1:50 5ft 10s 6s 16 18 mph 1020.8mb 55f 53f
12:50 5ft 10s 6s 13 16 mph 1021.1mb 55f 53f
dim. 07/20 11:50 4.5ft 6s 5s 16 18 mph 1020.9mb 55f 53f
10:50 5ft 14s 5s 16 20 mph 1020.9mb 55f 54f
9:50 5ft 6s 5s 13 18 mph 1021.2mb 55f 53f
8:50 5.5ft 11s 5s 18 20 mph 1021mb 55f 53f
7:50 5.5ft 6s 5s 18 20 mph 1021.2mb 55f 53f
6:50 5ft 6s 5s 20 25 mph 1020.9mb 55f 53f
5:50 5ft 6s 6s 18 22 mph 1020.6mb 55f 53f
4:50 5ft 6s 6s 16 20 mph 1020.5mb 55f 53f
3:50 5ft 9s 5s 22 27 mph 1020mb 55f 53f
2:50 5.5ft 10s 6s 18 22 mph 1019.8mb 55f 53f
1:50 5.5ft 10s 5s 18 25 mph 1019.8mb 55f 53f
12:50 5.5ft 5s 5s 18 20 mph 1020.1mb 55f 54f
11:50 5ft 9s 5s 20 22 mph 1020.2mb 55f 54f
10:50 5.5ft 10s 5s 22 25 mph 1020mb 55f 54f
9:50 5.5ft 6s 5s 20 22 mph 1020.1mb 55f 54f
8:50 5.5ft 10s 5s 20 22 mph 1019.9mb 55f 54f
7:50 6ft 6s 5s 18 22 mph 1019.6mb 55f 54f
6:50 5.5ft 6s 5s 18 20 mph 1019.5mb 55f 54f
5:50 5ft 6s 6s 18 22 mph 1019.2mb 55f 54f
4:50 5ft 6s 5s 16 20 mph 1019.2mb 55f 55f
3:50 5ft 6s 5s 18 22 mph 1018.9mb 55f 54f
2:50 5ft 6s 5s 18 22 mph 1019.2mb 55f 54f
1:50 4.5ft 10s 5s 16 20 mph 1019.1mb 55f 55f
12:50 4.5ft 6s 5s 16 18 mph 1019.2mb 55f 55f
sam. 07/19 11:50 5ft 6s 5s 16 20 mph 1019.3mb 55f 54f
10:50 5.5ft 5s 5s 16 18 mph 1019.3mb 55f 54f
9:50 6ft 6s 5s 18 22 mph 1019.3mb 55f 54f
8:50 6.5ft 10s 5s 20 27 mph 1019mb 55f 54f
7:50 6.5ft 9s 6s 18 22 mph 1018.5mb 55f 54f
6:50 6.5ft 10s 6s 18 20 mph 1018.2mb 55f 54f
5:50 6ft 11s 6s 16 20 mph 1018mb 55f 54f
4:50 6ft 9s 6s 16 18 mph 1017.6mb 55f 54f